sensor_id;sensor_type;location;lat;lon;timestamp;P1;durP1;ratioP1;P2;durP2;ratioP2
21562;SDS011;10942;47.894;11.424;2023-08-30T00:00:57;4.90;;;3.40;;
21562;SDS011;10942;47.894;11.424;2023-08-30T00:03:23;4.60;;;3.70;;
21562;SDS011;10942;47.894;11.424;2023-08-30T00:05:49;6.28;;;3.88;;
21562;SDS011;10942;47.894;11.424;2023-08-30T00:08:15;5.05;;;3.97;;
21562;SDS011;10942;47.894;11.424;2023-08-30T00:10:45;5.30;;;4.10;;
21562;SDS011;10942;47.894;11.424;2023-08-30T00:13:11;4.97;;;4.10;;
21562;SDS011;10942;47.894;11.424;2023-08-30T00:15:37;6.03;;;3.90;;
21562;SDS011;10942;47.894;11.424;2023-08-30T00:18:03;5.28;;;3.40;;
21562;SDS011;10942;47.894;11.424;2023-08-30T00:20:29;5.05;;;4.10;;
21562;SDS011;10942;47.894;11.424;2023-08-30T00:22:55;4.15;;;3.40;;
21562;SDS011;10942;47.894;11.424;2023-08-30T00:25:21;4.60;;;3.72;;
21562;SDS011;10942;47.894;11.424;2023-08-30T00:27:48;4.50;;;3.47;;
21562;SDS011;10942;47.894;11.424;2023-08-30T00:30:14;6.68;;;3.75;;
21562;SDS011;10942;47.894;11.424;2023-08-30T00:32:40;4.38;;;3.10;;
21562;SDS011;10942;47.894;11.424;2023-08-30T00:35:06;5.72;;;3.58;;
21562;SDS011;10942;47.894;11.424;2023-08-30T00:37:32;4.20;;;2.67;;
21562;SDS011;10942;47.894;11.424;2023-08-30T00:39:58;4.47;;;3.00;;
21562;SDS011;10942;47.894;11.424;2023-08-30T00:42:26;4.53;;;2.60;;
21562;SDS011;10942;47.894;11.424;2023-08-30T00:44:52;4.38;;;2.42;;
21562;SDS011;10942;47.894;11.424;2023-08-30T00:47:19;4.35;;;2.72;;
21562;SDS011;10942;47.894;11.424;2023-08-30T00:49:45;3.88;;;2.50;;
21562;SDS011;10942;47.894;11.424;2023-08-30T00:52:11;3.03;;;2.08;;
21562;SDS011;10942;47.894;11.424;2023-08-30T00:54:38;2.67;;;1.92;;
21562;SDS011;10942;47.894;11.424;2023-08-30T00:57:04;2.90;;;1.80;;
21562;SDS011;10942;47.894;11.424;2023-08-30T00:59:32;3.33;;;2.17;;
21562;SDS011;10942;47.894;11.424;2023-08-30T01:01:58;2.50;;;1.73;;
21562;SDS011;10942;47.894;11.424;2023-08-30T01:04:26;2.60;;;1.80;;
21562;SDS011;10942;47.894;11.424;2023-08-30T01:06:53;2.88;;;1.98;;
21562;SDS011;10942;47.894;11.424;2023-08-30T01:09:19;3.80;;;1.75;;
21562;SDS011;10942;47.894;11.424;2023-08-30T01:11:46;2.80;;;1.77;;
21562;SDS011;10942;47.894;11.424;2023-08-30T01:14:15;3.13;;;1.70;;
21562;SDS011;10942;47.894;11.424;2023-08-30T01:16:43;1.92;;;1.35;;
21562;SDS011;10942;47.894;11.424;2023-08-30T01:22:03;3.38;;;1.70;;
21562;SDS011;10942;47.894;11.424;2023-08-30T01:24:32;2.33;;;1.75;;
21562;SDS011;10942;47.894;11.424;2023-08-30T01:27:07;2.33;;;1.27;;
21562;SDS011;10942;47.894;11.424;2023-08-30T01:29:35;1.92;;;1.27;;
21562;SDS011;10942;47.894;11.424;2023-08-30T01:32:03;2.53;;;1.70;;
21562;SDS011;10942;47.894;11.424;2023-08-30T01:34:30;2.40;;;1.58;;
21562;SDS011;10942;47.894;11.424;2023-08-30T01:36:58;2.70;;;1.42;;
21562;SDS011;10942;47.894;11.424;2023-08-30T01:39:26;1.45;;;1.30;;
21562;SDS011;10942;47.894;11.424;2023-08-30T01:41:52;2.58;;;1.60;;
21562;SDS011;10942;47.894;11.424;2023-08-30T01:44:24;2.45;;;1.40;;
21562;SDS011;10942;47.894;11.424;2023-08-30T01:46:51;2.47;;;1.30;;
21562;SDS011;10942;47.894;11.424;2023-08-30T01:49:17;2.45;;;1.10;;
21562;SDS011;10942;47.894;11.424;2023-08-30T01:51:44;2.08;;;1.30;;
21562;SDS011;10942;47.894;11.424;2023-08-30T01:54:10;1.70;;;1.10;;
21562;SDS011;10942;47.894;11.424;2023-08-30T01:56:41;1.92;;;1.40;;
21562;SDS011;10942;47.894;11.424;2023-08-30T01:59:07;2.35;;;1.20;;
21562;SDS011;10942;47.894;11.424;2023-08-30T02:01:34;0.90;;;0.73;;
21562;SDS011;10942;47.894;11.424;2023-08-30T02:04:00;3.25;;;1.40;;
21562;SDS011;10942;47.894;11.424;2023-08-30T02:06:35;1.67;;;1.23;;
21562;SDS011;10942;47.894;11.424;2023-08-30T02:09:04;1.55;;;1.08;;
21562;SDS011;10942;47.894;11.424;2023-08-30T02:11:35;1.50;;;0.98;;
21562;SDS011;10942;47.894;11.424;2023-08-30T02:14:03;1.77;;;1.23;;
21562;SDS011;10942;47.894;11.424;2023-08-30T02:16:32;2.60;;;1.20;;
21562;SDS011;10942;47.894;11.424;2023-08-30T02:18:58;1.50;;;1.02;;
21562;SDS011;10942;47.894;11.424;2023-08-30T02:21:24;1.50;;;0.98;;
21562;SDS011;10942;47.894;11.424;2023-08-30T02:23:52;2.45;;;0.93;;
21562;SDS011;10942;47.894;11.424;2023-08-30T02:26:19;1.83;;;1.20;;
21562;SDS011;10942;47.894;11.424;2023-08-30T02:28:46;1.63;;;1.00;;
21562;SDS011;10942;47.894;11.424;2023-08-30T02:31:12;2.13;;;0.90;;
21562;SDS011;10942;47.894;11.424;2023-08-30T02:33:38;2.70;;;1.00;;
21562;SDS011;10942;47.894;11.424;2023-08-30T02:36:04;3.30;;;1.00;;
21562;SDS011;10942;47.894;11.424;2023-08-30T02:38:31;1.85;;;1.17;;
21562;SDS011;10942;47.894;11.424;2023-08-30T02:40:57;2.65;;;1.08;;
21562;SDS011;10942;47.894;11.424;2023-08-30T02:43:23;2.17;;;1.00;;
21562;SDS011;10942;47.894;11.424;2023-08-30T02:45:50;1.25;;;0.90;;
21562;SDS011;10942;47.894;11.424;2023-08-30T02:48:17;1.45;;;1.05;;
21562;SDS011;10942;47.894;11.424;2023-08-30T02:50:43;1.25;;;0.93;;
21562;SDS011;10942;47.894;11.424;2023-08-30T02:53:09;1.50;;;0.88;;
21562;SDS011;10942;47.894;11.424;2023-08-30T02:55:36;3.30;;;0.88;;
21562;SDS011;10942;47.894;11.424;2023-08-30T02:58:02;3.00;;;1.00;;
21562;SDS011;10942;47.894;11.424;2023-08-30T03:00:28;1.70;;;0.90;;
21562;SDS011;10942;47.894;11.424;2023-08-30T03:02:56;1.40;;;0.80;;
21562;SDS011;10942;47.894;11.424;2023-08-30T03:05:22;1.80;;;0.90;;
21562;SDS011;10942;47.894;11.424;2023-08-30T03:07:49;1.50;;;0.85;;
21562;SDS011;10942;47.894;11.424;2023-08-30T03:10:16;1.35;;;1.00;;
21562;SDS011;10942;47.894;11.424;2023-08-30T03:12:43;2.58;;;1.52;;
21562;SDS011;10942;47.894;11.424;2023-08-30T03:15:09;2.30;;;1.15;;
21562;SDS011;10942;47.894;11.424;2023-08-30T03:17:35;3.25;;;1.20;;
21562;SDS011;10942;47.894;11.424;2023-08-30T03:20:02;1.70;;;1.13;;
21562;SDS011;10942;47.894;11.424;2023-08-30T03:22:29;4.28;;;1.10;;
21562;SDS011;10942;47.894;11.424;2023-08-30T03:24:55;1.77;;;1.10;;
21562;SDS011;10942;47.894;11.424;2023-08-30T03:27:21;1.77;;;1.20;;
21562;SDS011;10942;47.894;11.424;2023-08-30T03:29:48;1.67;;;1.00;;
21562;SDS011;10942;47.894;11.424;2023-08-30T03:32:15;2.30;;;0.80;;
21562;SDS011;10942;47.894;11.424;2023-08-30T03:34:44;1.42;;;1.00;;
21562;SDS011;10942;47.894;11.424;2023-08-30T03:37:11;1.52;;;0.80;;
21562;SDS011;10942;47.894;11.424;2023-08-30T03:39:37;2.67;;;1.40;;
21562;SDS011;10942;47.894;11.424;2023-08-30T03:42:03;1.70;;;1.10;;
21562;SDS011;10942;47.894;11.424;2023-08-30T03:44:29;1.55;;;0.98;;
21562;SDS011;10942;47.894;11.424;2023-08-30T03:46:55;1.58;;;0.90;;
21562;SDS011;10942;47.894;11.424;2023-08-30T03:49:22;3.20;;;0.95;;
21562;SDS011;10942;47.894;11.424;2023-08-30T03:51:48;1.17;;;0.85;;
21562;SDS011;10942;47.894;11.424;2023-08-30T03:54:14;2.15;;;0.98;;
21562;SDS011;10942;47.894;11.424;2023-08-30T03:56:44;1.38;;;1.00;;
21562;SDS011;10942;47.894;11.424;2023-08-30T03:59:11;1.48;;;0.80;;
21562;SDS011;10942;47.894;11.424;2023-08-30T04:01:38;1.00;;;0.70;;
21562;SDS011;10942;47.894;11.424;2023-08-30T04:04:04;1.42;;;1.08;;
21562;SDS011;10942;47.894;11.424;2023-08-30T04:06:30;1.75;;;0.95;;
21562;SDS011;10942;47.894;11.424;2023-08-30T04:08:56;2.65;;;1.08;;
21562;SDS011;10942;47.894;11.424;2023-08-30T04:11:23;1.10;;;0.93;;
21562;SDS011;10942;47.894;11.424;2023-08-30T04:13:49;2.30;;;1.10;;
21562;SDS011;10942;47.894;11.424;2023-08-30T04:16:15;1.90;;;1.10;;
21562;SDS011;10942;47.894;11.424;2023-08-30T04:18:41;1.73;;;1.13;;
21562;SDS011;10942;47.894;11.424;2023-08-30T04:21:07;2.30;;;1.40;;
21562;SDS011;10942;47.894;11.424;2023-08-30T04:23:34;1.33;;;1.00;;
21562;SDS011;10942;47.894;11.424;2023-08-30T04:26:00;2.15;;;0.85;;
21562;SDS011;10942;47.894;11.424;2023-08-30T04:28:27;2.08;;;1.20;;
21562;SDS011;10942;47.894;11.424;2023-08-30T04:30:54;2.65;;;0.90;;
21562;SDS011;10942;47.894;11.424;2023-08-30T04:33:20;1.90;;;0.90;;
21562;SDS011;10942;47.894;11.424;2023-08-30T04:35:50;1.95;;;1.00;;
21562;SDS011;10942;47.894;11.424;2023-08-30T04:38:16;3.00;;;1.23;;
21562;SDS011;10942;47.894;11.424;2023-08-30T04:40:42;2.55;;;0.93;;
21562;SDS011;10942;47.894;11.424;2023-08-30T04:43:09;1.15;;;0.95;;
21562;SDS011;10942;47.894;11.424;2023-08-30T04:45:35;1.40;;;1.00;;
21562;SDS011;10942;47.894;11.424;2023-08-30T04:48:04;5.38;;;1.02;;
21562;SDS011;10942;47.894;11.424;2023-08-30T04:50:31;1.63;;;1.20;;
21562;SDS011;10942;47.894;11.424;2023-08-30T04:52:57;3.10;;;1.50;;
21562;SDS011;10942;47.894;11.424;2023-08-30T04:55:24;1.40;;;1.00;;
21562;SDS011;10942;47.894;11.424;2023-08-30T04:57:50;1.90;;;1.30;;
21562;SDS011;10942;47.894;11.424;2023-08-30T05:00:17;1.80;;;1.00;;
21562;SDS011;10942;47.894;11.424;2023-08-30T05:02:44;1.50;;;0.98;;
21562;SDS011;10942;47.894;11.424;2023-08-30T05:05:12;2.30;;;1.10;;
21562;SDS011;10942;47.894;11.424;2023-08-30T05:07:38;1.77;;;1.10;;
21562;SDS011;10942;47.894;11.424;2023-08-30T05:10:05;2.38;;;1.25;;
21562;SDS011;10942;47.894;11.424;2023-08-30T05:12:32;1.45;;;0.95;;
21562;SDS011;10942;47.894;11.424;2023-08-30T05:14:59;2.90;;;1.20;;
21562;SDS011;10942;47.894;11.424;2023-08-30T05:17:26;1.73;;;1.05;;
21562;SDS011;10942;47.894;11.424;2023-08-30T05:19:54;2.45;;;1.17;;
21562;SDS011;10942;47.894;11.424;2023-08-30T05:22:20;1.70;;;1.10;;
21562;SDS011;10942;47.894;11.424;2023-08-30T05:24:46;1.92;;;1.23;;
21562;SDS011;10942;47.894;11.424;2023-08-30T05:27:13;2.15;;;1.30;;
21562;SDS011;10942;47.894;11.424;2023-08-30T05:29:40;1.70;;;1.30;;
21562;SDS011;10942;47.894;11.424;2023-08-30T05:32:06;2.15;;;1.13;;
21562;SDS011;10942;47.894;11.424;2023-08-30T05:34:35;2.78;;;1.38;;
21562;SDS011;10942;47.894;11.424;2023-08-30T05:37:13;2.08;;;1.38;;
21562;SDS011;10942;47.894;11.424;2023-08-30T05:39:56;2.17;;;1.27;;
21562;SDS011;10942;47.894;11.424;2023-08-30T05:42:23;3.60;;;1.38;;
21562;SDS011;10942;47.894;11.424;2023-08-30T05:44:49;2.78;;;1.20;;
21562;SDS011;10942;47.894;11.424;2023-08-30T05:47:15;1.98;;;1.40;;
21562;SDS011;10942;47.894;11.424;2023-08-30T05:49:44;2.15;;;1.15;;
21562;SDS011;10942;47.894;11.424;2023-08-30T05:52:10;2.17;;;1.30;;
21562;SDS011;10942;47.894;11.424;2023-08-30T05:54:36;1.50;;;1.10;;
21562;SDS011;10942;47.894;11.424;2023-08-30T05:57:02;2.15;;;1.33;;
21562;SDS011;10942;47.894;11.424;2023-08-30T05:59:30;1.88;;;1.20;;
21562;SDS011;10942;47.894;11.424;2023-08-30T06:01:56;4.13;;;1.40;;
21562;SDS011;10942;47.894;11.424;2023-08-30T06:04:22;2.30;;;1.27;;
21562;SDS011;10942;47.894;11.424;2023-08-30T06:06:48;2.92;;;1.63;;
21562;SDS011;10942;47.894;11.424;2023-08-30T06:09:14;2.75;;;1.50;;
21562;SDS011;10942;47.894;11.424;2023-08-30T06:11:40;3.92;;;1.30;;
21562;SDS011;10942;47.894;11.424;2023-08-30T06:14:07;2.35;;;1.60;;
21562;SDS011;10942;47.894;11.424;2023-08-30T06:16:33;1.95;;;1.20;;
21562;SDS011;10942;47.894;11.424;2023-08-30T06:18:59;3.60;;;1.42;;
21562;SDS011;10942;47.894;11.424;2023-08-30T06:21:25;1.65;;;1.20;;
21562;SDS011;10942;47.894;11.424;2023-08-30T06:23:52;3.25;;;1.50;;
21562;SDS011;10942;47.894;11.424;2023-08-30T06:26:18;2.95;;;1.70;;
21562;SDS011;10942;47.894;11.424;2023-08-30T06:28:44;1.65;;;1.20;;
21562;SDS011;10942;47.894;11.424;2023-08-30T06:31:10;2.20;;;1.42;;
21562;SDS011;10942;47.894;11.424;2023-08-30T06:33:36;2.08;;;1.40;;
21562;SDS011;10942;47.894;11.424;2023-08-30T06:36:05;2.25;;;1.20;;
21562;SDS011;10942;47.894;11.424;2023-08-30T06:38:31;3.42;;;1.67;;
21562;SDS011;10942;47.894;11.424;2023-08-30T06:40:57;1.98;;;1.25;;
21562;SDS011;10942;47.894;11.424;2023-08-30T06:43:24;2.97;;;1.52;;
21562;SDS011;10942;47.894;11.424;2023-08-30T06:45:50;1.98;;;1.38;;
21562;SDS011;10942;47.894;11.424;2023-08-30T06:48:18;3.03;;;1.38;;
21562;SDS011;10942;47.894;11.424;2023-08-30T06:50:44;3.53;;;1.40;;
21562;SDS011;10942;47.894;11.424;2023-08-30T06:53:10;3.33;;;1.80;;
21562;SDS011;10942;47.894;11.424;2023-08-30T06:55:36;2.97;;;1.80;;
21562;SDS011;10942;47.894;11.424;2023-08-30T06:58:03;2.53;;;1.60;;
21562;SDS011;10942;47.894;11.424;2023-08-30T07:00:29;2.00;;;1.38;;
21562;SDS011;10942;47.894;11.424;2023-08-30T07:02:55;1.95;;;1.23;;
21562;SDS011;10942;47.894;11.424;2023-08-30T07:05:21;3.03;;;1.70;;
21562;SDS011;10942;47.894;11.424;2023-08-30T07:07:48;3.45;;;1.42;;
21562;SDS011;10942;47.894;11.424;2023-08-30T07:10:14;2.45;;;1.50;;
21562;SDS011;10942;47.894;11.424;2023-08-30T07:12:40;2.40;;;1.40;;
21562;SDS011;10942;47.894;11.424;2023-08-30T07:15:06;1.77;;;1.13;;
21562;SDS011;10942;47.894;11.424;2023-08-30T07:17:33;2.10;;;1.30;;
21562;SDS011;10942;47.894;11.424;2023-08-30T07:19:59;2.50;;;1.40;;
21562;SDS011;10942;47.894;11.424;2023-08-30T07:22:26;2.38;;;1.10;;
21562;SDS011;10942;47.894;11.424;2023-08-30T07:24:52;2.28;;;1.23;;
21562;SDS011;10942;47.894;11.424;2023-08-30T07:27:18;2.13;;;1.40;;
21562;SDS011;10942;47.894;11.424;2023-08-30T07:29:44;2.25;;;1.42;;
21562;SDS011;10942;47.894;11.424;2023-08-30T07:32:10;2.17;;;1.38;;
21562;SDS011;10942;47.894;11.424;2023-08-30T07:34:36;2.40;;;1.27;;
21562;SDS011;10942;47.894;11.424;2023-08-30T07:37:02;2.25;;;1.25;;
21562;SDS011;10942;47.894;11.424;2023-08-30T07:39:29;1.73;;;1.08;;
21562;SDS011;10942;47.894;11.424;2023-08-30T07:41:55;2.53;;;1.40;;
21562;SDS011;10942;47.894;11.424;2023-08-30T07:44:21;1.70;;;1.30;;
21562;SDS011;10942;47.894;11.424;2023-08-30T07:46:47;2.10;;;1.40;;
21562;SDS011;10942;47.894;11.424;2023-08-30T07:49:13;3.13;;;1.48;;
21562;SDS011;10942;47.894;11.424;2023-08-30T07:51:39;1.88;;;1.17;;
21562;SDS011;10942;47.894;11.424;2023-08-30T07:54:06;2.25;;;1.20;;
21562;SDS011;10942;47.894;11.424;2023-08-30T07:56:32;2.28;;;1.25;;
21562;SDS011;10942;47.894;11.424;2023-08-30T07:58:58;3.38;;;1.20;;
21562;SDS011;10942;47.894;11.424;2023-08-30T08:01:24;2.25;;;1.00;;
21562;SDS011;10942;47.894;11.424;2023-08-30T08:03:50;1.63;;;1.10;;
21562;SDS011;10942;47.894;11.424;2023-08-30T08:06:16;2.83;;;1.20;;
21562;SDS011;10942;47.894;11.424;2023-08-30T08:08:43;2.03;;;1.33;;
21562;SDS011;10942;47.894;11.424;2023-08-30T08:11:09;3.38;;;1.30;;
21562;SDS011;10942;47.894;11.424;2023-08-30T08:13:36;2.28;;;1.42;;
21562;SDS011;10942;47.894;11.424;2023-08-30T08:16:02;2.30;;;1.60;;
21562;SDS011;10942;47.894;11.424;2023-08-30T08:18:29;2.88;;;1.40;;
21562;SDS011;10942;47.894;11.424;2023-08-30T08:20:55;2.78;;;1.48;;
21562;SDS011;10942;47.894;11.424;2023-08-30T08:23:21;2.42;;;1.30;;
21562;SDS011;10942;47.894;11.424;2023-08-30T08:25:47;1.95;;;1.20;;
21562;SDS011;10942;47.894;11.424;2023-08-30T08:28:13;2.05;;;1.40;;
21562;SDS011;10942;47.894;11.424;2023-08-30T08:30:41;2.83;;;1.30;;
21562;SDS011;10942;47.894;11.424;2023-08-30T08:33:08;2.10;;;1.35;;
21562;SDS011;10942;47.894;11.424;2023-08-30T08:35:34;1.70;;;1.23;;
21562;SDS011;10942;47.894;11.424;2023-08-30T08:38:00;1.95;;;1.48;;
21562;SDS011;10942;47.894;11.424;2023-08-30T08:40:26;2.75;;;1.50;;
21562;SDS011;10942;47.894;11.424;2023-08-30T08:42:52;2.83;;;1.38;;
21562;SDS011;10942;47.894;11.424;2023-08-30T08:45:20;2.13;;;1.33;;
21562;SDS011;10942;47.894;11.424;2023-08-30T08:47:47;2.25;;;1.52;;
21562;SDS011;10942;47.894;11.424;2023-08-30T08:50:13;2.38;;;1.25;;
21562;SDS011;10942;47.894;11.424;2023-08-30T08:52:40;2.13;;;1.55;;
21562;SDS011;10942;47.894;11.424;2023-08-30T08:55:06;1.98;;;1.40;;
21562;SDS011;10942;47.894;11.424;2023-08-30T08:57:32;2.22;;;1.40;;
21562;SDS011;10942;47.894;11.424;2023-08-30T08:59:58;2.50;;;1.40;;
21562;SDS011;10942;47.894;11.424;2023-08-30T09:02:24;2.20;;;1.50;;
21562;SDS011;10942;47.894;11.424;2023-08-30T09:04:51;3.45;;;1.73;;
21562;SDS011;10942;47.894;11.424;2023-08-30T09:07:18;3.38;;;1.42;;
21562;SDS011;10942;47.894;11.424;2023-08-30T09:09:45;3.92;;;1.50;;
21562;SDS011;10942;47.894;11.424;2023-08-30T09:12:12;2.88;;;1.60;;
21562;SDS011;10942;47.894;11.424;2023-08-30T09:14:38;2.67;;;1.48;;
21562;SDS011;10942;47.894;11.424;2023-08-30T09:17:04;3.25;;;1.48;;
21562;SDS011;10942;47.894;11.424;2023-08-30T09:19:30;2.92;;;1.50;;
21562;SDS011;10942;47.894;11.424;2023-08-30T09:21:57;2.15;;;1.48;;
21562;SDS011;10942;47.894;11.424;2023-08-30T09:24:23;3.45;;;1.60;;
21562;SDS011;10942;47.894;11.424;2023-08-30T09:26:53;1.80;;;1.30;;
21562;SDS011;10942;47.894;11.424;2023-08-30T09:29:20;2.25;;;1.50;;
21562;SDS011;10942;47.894;11.424;2023-08-30T09:31:50;2.22;;;1.30;;
21562;SDS011;10942;47.894;11.424;2023-08-30T09:34:16;2.67;;;1.40;;
21562;SDS011;10942;47.894;11.424;2023-08-30T09:36:42;3.83;;;1.50;;
21562;SDS011;10942;47.894;11.424;2023-08-30T09:39:10;4.10;;;1.70;;
21562;SDS011;10942;47.894;11.424;2023-08-30T09:41:40;2.55;;;1.58;;
21562;SDS011;10942;47.894;11.424;2023-08-30T09:44:08;3.33;;;1.90;;
21562;SDS011;10942;47.894;11.424;2023-08-30T09:46:42;3.05;;;1.90;;
21562;SDS011;10942;47.894;11.424;2023-08-30T09:49:08;4.90;;;2.10;;
21562;SDS011;10942;47.894;11.424;2023-08-30T09:51:35;2.50;;;2.00;;
21562;SDS011;10942;47.894;11.424;2023-08-30T09:54:04;2.25;;;1.65;;
21562;SDS011;10942;47.894;11.424;2023-08-30T09:56:31;5.53;;;2.95;;
21562;SDS011;10942;47.894;11.424;2023-08-30T09:58:58;3.42;;;2.10;;
21562;SDS011;10942;47.894;11.424;2023-08-30T10:01:26;2.85;;;1.65;;
21562;SDS011;10942;47.894;11.424;2023-08-30T10:03:53;4.70;;;1.80;;
21562;SDS011;10942;47.894;11.424;2023-08-30T10:06:20;4.43;;;2.22;;
21562;SDS011;10942;47.894;11.424;2023-08-30T10:08:49;2.75;;;1.85;;
21562;SDS011;10942;47.894;11.424;2023-08-30T10:11:17;2.30;;;1.63;;
21562;SDS011;10942;47.894;11.424;2023-08-30T10:13:44;4.68;;;2.10;;
21562;SDS011;10942;47.894;11.424;2023-08-30T10:16:11;3.30;;;1.60;;
21562;SDS011;10942;47.894;11.424;2023-08-30T10:18:38;3.53;;;1.80;;
21562;SDS011;10942;47.894;11.424;2023-08-30T10:21:06;3.50;;;1.80;;
21562;SDS011;10942;47.894;11.424;2023-08-30T10:23:33;2.28;;;1.45;;
21562;SDS011;10942;47.894;11.424;2023-08-30T10:26:01;2.67;;;1.63;;
21562;SDS011;10942;47.894;11.424;2023-08-30T10:28:28;3.17;;;1.65;;
21562;SDS011;10942;47.894;11.424;2023-08-30T10:30:55;2.65;;;1.42;;
21562;SDS011;10942;47.894;11.424;2023-08-30T10:33:21;2.05;;;1.40;;
21562;SDS011;10942;47.894;11.424;2023-08-30T10:35:51;3.08;;;1.67;;
21562;SDS011;10942;47.894;11.424;2023-08-30T10:38:24;4.45;;;1.60;;
21562;SDS011;10942;47.894;11.424;2023-08-30T10:41:05;2.45;;;1.60;;
21562;SDS011;10942;47.894;11.424;2023-08-30T10:43:33;3.13;;;1.77;;
21562;SDS011;10942;47.894;11.424;2023-08-30T10:46:03;3.60;;;1.63;;
21562;SDS011;10942;47.894;11.424;2023-08-30T10:48:38;2.55;;;1.70;;
21562;SDS011;10942;47.894;11.424;2023-08-30T10:51:06;2.70;;;1.45;;
21562;SDS011;10942;47.894;11.424;2023-08-30T10:53:32;3.35;;;1.50;;
21562;SDS011;10942;47.894;11.424;2023-08-30T10:56:02;3.72;;;1.60;;
21562;SDS011;10942;47.894;11.424;2023-08-30T10:58:38;3.17;;;1.75;;
21562;SDS011;10942;47.894;11.424;2023-08-30T11:01:04;3.30;;;1.90;;
21562;SDS011;10942;47.894;11.424;2023-08-30T11:03:31;2.78;;;1.50;;
21562;SDS011;10942;47.894;11.424;2023-08-30T11:05:57;2.70;;;1.60;;
21562;SDS011;10942;47.894;11.424;2023-08-30T11:08:26;2.28;;;1.35;;
21562;SDS011;10942;47.894;11.424;2023-08-30T11:11:06;2.63;;;1.42;;
21562;SDS011;10942;47.894;11.424;2023-08-30T11:13:35;2.00;;;1.17;;
21562;SDS011;10942;47.894;11.424;2023-08-30T11:16:02;4.88;;;1.20;;
21562;SDS011;10942;47.894;11.424;2023-08-30T11:18:38;2.08;;;1.10;;
21562;SDS011;10942;47.894;11.424;2023-08-30T11:21:06;2.58;;;1.20;;
21562;SDS011;10942;47.894;11.424;2023-08-30T11:23:34;3.03;;;1.13;;
21562;SDS011;10942;47.894;11.424;2023-08-30T11:26:00;1.50;;;1.00;;
21562;SDS011;10942;47.894;11.424;2023-08-30T11:28:28;1.90;;;1.40;;
21562;SDS011;10942;47.894;11.424;2023-08-30T11:30:55;1.88;;;1.15;;
21562;SDS011;10942;47.894;11.424;2023-08-30T11:33:21;2.25;;;1.13;;
21562;SDS011;10942;47.894;11.424;2023-08-30T11:35:48;1.50;;;1.05;;
21562;SDS011;10942;47.894;11.424;2023-08-30T11:38:15;1.83;;;1.10;;
21562;SDS011;10942;47.894;11.424;2023-08-30T11:40:41;1.60;;;1.00;;
21562;SDS011;10942;47.894;11.424;2023-08-30T11:43:07;1.88;;;1.13;;
21562;SDS011;10942;47.894;11.424;2023-08-30T11:45:33;1.58;;;1.00;;
21562;SDS011;10942;47.894;11.424;2023-08-30T11:48:00;2.42;;;1.00;;
21562;SDS011;10942;47.894;11.424;2023-08-30T11:50:26;2.83;;;0.90;;
21562;SDS011;10942;47.894;11.424;2023-08-30T11:52:53;2.35;;;1.00;;
21562;SDS011;10942;47.894;11.424;2023-08-30T11:55:22;2.17;;;0.98;;
21562;SDS011;10942;47.894;11.424;2023-08-30T11:57:49;1.80;;;0.90;;
21562;SDS011;10942;47.894;11.424;2023-08-30T12:00:18;2.33;;;0.85;;
21562;SDS011;10942;47.894;11.424;2023-08-30T12:02:45;2.25;;;1.05;;
21562;SDS011;10942;47.894;11.424;2023-08-30T12:05:12;2.00;;;1.20;;
21562;SDS011;10942;47.894;11.424;2023-08-30T12:07:38;1.75;;;1.05;;
21562;SDS011;10942;47.894;11.424;2023-08-30T12:10:09;2.70;;;0.88;;
21562;SDS011;10942;47.894;11.424;2023-08-30T12:12:35;1.98;;;0.98;;
21562;SDS011;10942;47.894;11.424;2023-08-30T12:15:07;3.45;;;1.40;;
21562;SDS011;10942;47.894;11.424;2023-08-30T12:19:59;2.88;;;1.23;;
21562;SDS011;10942;47.894;11.424;2023-08-30T12:22:36;2.80;;;1.63;;
21562;SDS011;10942;47.894;11.424;2023-08-30T12:25:02;9.10;;;3.08;;
21562;SDS011;10942;47.894;11.424;2023-08-30T12:27:29;3.97;;;2.00;;
21562;SDS011;10942;47.894;11.424;2023-08-30T12:29:55;2.05;;;0.90;;
21562;SDS011;10942;47.894;11.424;2023-08-30T12:32:21;2.10;;;1.20;;
21562;SDS011;10942;47.894;11.424;2023-08-30T12:34:47;2.67;;;1.00;;
21562;SDS011;10942;47.894;11.424;2023-08-30T12:37:13;2.22;;;1.27;;
21562;SDS011;10942;47.894;11.424;2023-08-30T12:39:39;2.83;;;0.98;;
21562;SDS011;10942;47.894;11.424;2023-08-30T12:42:05;11.02;;;4.30;;
21562;SDS011;10942;47.894;11.424;2023-08-30T12:44:31;3.78;;;1.60;;
21562;SDS011;10942;47.894;11.424;2023-08-30T12:46:58;3.78;;;1.35;;
21562;SDS011;10942;47.894;11.424;2023-08-30T12:49:24;4.82;;;2.00;;
21562;SDS011;10942;47.894;11.424;2023-08-30T12:51:50;1.63;;;0.95;;
21562;SDS011;10942;47.894;11.424;2023-08-30T12:54:16;1.20;;;0.85;;
21562;SDS011;10942;47.894;11.424;2023-08-30T12:56:42;1.38;;;0.80;;
21562;SDS011;10942;47.894;11.424;2023-08-30T12:59:08;1.50;;;0.90;;
21562;SDS011;10942;47.894;11.424;2023-08-30T13:01:34;1.25;;;0.77;;
21562;SDS011;10942;47.894;11.424;2023-08-30T13:04:01;2.20;;;1.13;;
21562;SDS011;10942;47.894;11.424;2023-08-30T13:06:28;1.60;;;0.95;;
21562;SDS011;10942;47.894;11.424;2023-08-30T13:08:54;1.38;;;0.80;;
21562;SDS011;10942;47.894;11.424;2023-08-30T13:11:21;4.53;;;2.25;;
21562;SDS011;10942;47.894;11.424;2023-08-30T13:13:47;2.33;;;1.23;;
21562;SDS011;10942;47.894;11.424;2023-08-30T13:16:13;2.42;;;1.25;;
21562;SDS011;10942;47.894;11.424;2023-08-30T13:18:39;4.97;;;2.25;;
21562;SDS011;10942;47.894;11.424;2023-08-30T13:21:05;5.40;;;1.10;;
21562;SDS011;10942;47.894;11.424;2023-08-30T13:23:31;2.05;;;0.80;;
21562;SDS011;10942;47.894;11.424;2023-08-30T13:25:57;3.25;;;1.10;;
21562;SDS011;10942;47.894;11.424;2023-08-30T13:28:24;1.85;;;0.70;;
21562;SDS011;10942;47.894;11.424;2023-08-30T13:30:50;4.75;;;1.10;;
21562;SDS011;10942;47.894;11.424;2023-08-30T13:33:16;7.32;;;2.22;;
21562;SDS011;10942;47.894;11.424;2023-08-30T13:35:42;5.10;;;1.50;;
21562;SDS011;10942;47.894;11.424;2023-08-30T13:38:08;1.73;;;0.93;;
21562;SDS011;10942;47.894;11.424;2023-08-30T13:40:34;2.17;;;0.73;;
21562;SDS011;10942;47.894;11.424;2023-08-30T13:43:01;1.25;;;0.70;;
21562;SDS011;10942;47.894;11.424;2023-08-30T13:45:28;1.88;;;0.75;;
21562;SDS011;10942;47.894;11.424;2023-08-30T13:47:54;1.42;;;0.73;;
21562;SDS011;10942;47.894;11.424;2023-08-30T13:50:20;1.20;;;0.70;;
21562;SDS011;10942;47.894;11.424;2023-08-30T13:52:46;1.48;;;0.70;;
21562;SDS011;10942;47.894;11.424;2023-08-30T13:55:12;2.67;;;1.10;;
21562;SDS011;10942;47.894;11.424;2023-08-30T13:57:38;1.48;;;0.80;;
21562;SDS011;10942;47.894;11.424;2023-08-30T14:00:05;1.85;;;0.88;;
21562;SDS011;10942;47.894;11.424;2023-08-30T14:02:34;2.95;;;0.80;;
21562;SDS011;10942;47.894;11.424;2023-08-30T14:05:01;2.65;;;0.90;;
21562;SDS011;10942;47.894;11.424;2023-08-30T14:07:27;0.88;;;0.52;;
21562;SDS011;10942;47.894;11.424;2023-08-30T14:09:53;1.70;;;0.93;;
21562;SDS011;10942;47.894;11.424;2023-08-30T14:12:19;4.20;;;0.90;;
21562;SDS011;10942;47.894;11.424;2023-08-30T14:14:45;2.92;;;0.70;;
21562;SDS011;10942;47.894;11.424;2023-08-30T14:17:11;1.75;;;0.90;;
21562;SDS011;10942;47.894;11.424;2023-08-30T14:19:38;1.95;;;0.68;;
21562;SDS011;10942;47.894;11.424;2023-08-30T14:22:04;1.30;;;0.68;;
21562;SDS011;10942;47.894;11.424;2023-08-30T14:24:31;1.92;;;0.80;;
21562;SDS011;10942;47.894;11.424;2023-08-30T14:26:58;2.83;;;0.95;;
21562;SDS011;10942;47.894;11.424;2023-08-30T14:29:24;1.00;;;0.80;;
21562;SDS011;10942;47.894;11.424;2023-08-30T14:31:50;1.90;;;0.90;;
21562;SDS011;10942;47.894;11.424;2023-08-30T14:34:16;15.27;;;10.32;;
21562;SDS011;10942;47.894;11.424;2023-08-30T14:36:42;127.35;;;82.18;;